Norfolk, Virginia
Traffic Map
Current Weather Conditions
Norfolk, Virginia
Broken Clouds
Broken Clouds
23°
Feels Like: 23°
Wind Chill: 23° Ceiling: 9000
Heat Index: 23° Visibility: 10mi
Dew Point: 14° Wind: 10mph
Humidity: 55% Direction: 60° (ENE)
Pressure: 29.95in Gusts: 0mph
Raw Report DataKORF 172051Z 06009KT 10SM SCT075 BKN090 23/14 A2995 RMK AO2 SLP140 T02330139 56013
Traffic Incident Summary
Active as of:
Severity:
Category:
InformationThere was an issue retrieving the traffic information for this location. Please try a different location or try again shortly.
Advertisements
Track Severe Weather on mobile